Terminal Aerodrome Forecast
Issued by NWS

Home | Current Version | Previous Version | Text Only | Print | Product List | Glossary On
Versions: 1 2 3 4 5 6 7 8 9 10 11 12 13 14 15 16 17 18 19 20 21 22
000
FTUS41 KCAR 281120
TAFBHB
TAF
KBHB 281120Z 2812/2912 04014G21KT P6SM BKN090
     FM281300 04015G22KT P6SM BKN090
     FM281600 03013G20KT P6SM BKN030
     FM282300 36013G20KT P6SM BKN040
     FM290700 35010G17KT P6SM SCT250
     FM291000 33006KT P6SM SCT250
      AMD LTD TO CLD VIS AND WIND=

USA.gov is the U.S. government's official web portal to all federal, state and local government web resources and services.